x

St. Augustine, Fl (sauf1) Weather Station

5:00pm - Sun 19th Feb 2017 All times are EST. -5 hours from GMT.

  • Wind
    10mph
  • Sea Temp 67°f
  • Air Temp 66°f
  • Sea Pressure 1018mb
  • St. Augustine, Fl
  • St. Augustine, Fl

More Historic Weather Station data

Upgrade to MSW Pro to gain access to the past 30 days of data for over 8000 Wavebouys and Weather Stations around the globe.

Join Pro

Comparision Forecast

View Surf forecast
   
Sun 02/19 5:00pm 10
mph
1018mb 67f 66f
4:00pm 10 11 mph 1018mb 67f 66f
3:00pm 10 11 mph 1018.2mb 67f 65f
2:00pm 10 13 mph 1018.1mb 67f 65f
1:00pm 13 14 mph 1018.7mb 67f 65f
12:00pm 14 15 mph 1019.1mb 66f 65f
11:00am 13 17 mph 1019.1mb 66f 68f
10:00am 8 11 mph 1019.6mb 65f 66f
9:00am 11 14 mph 1019.1mb 65f 64f
8:00am 7 9 mph 1018.5mb 65f 62f
7:00am 6 8 mph 1018mb 65f 62f
6:00am 6 7 mph 1017.5mb 65f 62f
5:00am 5 6 mph 1016.5mb 65f 62f
4:00am 6
mph
1016mb 65f 62f
3:00am 2 3 mph 1016.3mb 65f 63f
2:00am 2
mph
1016.7mb 65f 63f
1:00am 2 3 mph 1016.5mb 66f 63f
12:00am 5
mph
1016.8mb 66f 64f
Sat 02/18 11:00pm 6 9 mph 1017.4mb 66f 65f
10:00pm 5 6 mph 1016.7mb 66f 65f
9:00pm 3 5 mph 1016.2mb 66f 66f
8:00pm 5 6 mph 1015.8mb 66f 67f
7:00pm 9 10 mph 1015mb 66f 67f
6:00pm 11 13 mph 1014.6mb 66f 67f
5:00pm 11
mph
1014.4mb 66f 68f
4:00pm 10 11 mph 1014.3mb 66f 69f
3:00pm 6 8 mph 1017.2mb 66f 72f
2:00pm 10 11 mph 1017.5mb 66f 72f
1:00pm 10 14 mph 1017.9mb 65f 73f
12:00pm 11 15 mph 1018.4mb 65f 72f
11:00am 14 16 mph 1018.1mb 65f 70f
10:00am 20 23 mph 1017.5mb 65f 66f
9:00am 13 14 mph 1017.9mb 65f 63f
8:00am 6 7 mph 1018.2mb 64f 60f
7:00am 6
mph
1017.6mb 64f 61f
6:00am 1 2 mph 1017.4mb 64f 61f
5:00am  -  1 mph 1017.3mb 64f 60f
4:00am 1 2 mph 1017.9mb 65f 57f
3:00am 6 7 mph 1018.4mb 65f 55f
2:00am 6 7 mph 1018.3mb 64f 56f
1:00am 5 6 mph 1018mb 65f 56f
12:00am 7 9 mph 1018.5mb 65f 58f
Fri 02/17 11:00pm 6
mph
1018.3mb 65f 63f
10:00pm 14 15 mph 1018.4mb 65f 66f
9:00pm 13 15 mph 1018.7mb 65f 66f
8:00pm 15 16 mph 1018.5mb 65f 65f
7:00pm 14 15 mph 1018.3mb 66f 64f
6:00pm 11 13 mph 1018.1mb 66f 64f
5:00pm 9 10 mph 1018.2mb 66f 64f
4:00pm 9 10 mph 1018.1mb 66f 63f
3:00pm 7 8 mph 1018.7mb 66f 62f
2:00pm 8
mph
1019.1mb 65f 62f
1:00pm 6 7 mph 1019.9mb 65f 61f
12:00pm 7 8 mph 1020.7mb 64f 61f
11:00am 5 6 mph 1021.6mb 64f 60f
10:00am 3 6 mph 1021.4mb 64f 58f
9:00am 5 6 mph 1021.3mb 63f 55f
8:00am 7 9 mph 1020.9mb 63f 50f
7:00am 7 8 mph 1019.8mb 63f 48f
6:00am 5 6 mph 1019.2mb 64f 48f
5:00am 9 10 mph 1019mb 64f 51f
4:00am 8 9 mph 1018.8mb 64f 50f
3:00am 6 7 mph 1018.9mb 64f 50f
2:00am 7 8 mph 1019mb 64f 51f
1:00am 6 7 mph 1019.2mb 64f 53f
12:00am 8
mph
1019mb 65f 53f
Thu 02/16 11:00pm 8
mph
1018.9mb 65f 54f
10:00pm 6 7 mph 1018.9mb 65f 55f
9:00pm 7 8 mph 1018.4mb 65f 57f
8:00pm 3
mph
1017.7mb 65f 60f
7:00pm  -  1 mph 1017.1mb 65f 60f
6:00pm 3 5 mph 1016.5mb 66f 62f
5:00pm 7 8 mph 1016mb 66f 61f
4:00pm 1 3 mph 1016.1mb 66f 62f
3:00pm 8 10 mph 1016.4mb 66f 64f
2:00pm 9 10 mph 1016.3mb 66f 61f
1:00pm 10 11 mph 1016.8mb 65f 59f
12:00pm 10 13 mph 1017.5mb 65f 58f
11:00am 9 10 mph 1017.7mb 64f 55f
10:00am 14 16 mph 1016.7mb 64f 53f
9:00am 18 20 mph 1016.2mb 64f 52f
8:00am 11 15 mph 1015.4mb 64f 51f
7:00am 6 7 mph 1015.2mb 64f 51f
6:00am 6 7 mph 1014.7mb 64f 53f
5:00am 7 8 mph 1014.3mb 64f 54f
4:00am 9 10 mph 1013.5mb 65f 56f
3:00am 10 13 mph 1013mb 65f 58f
2:00am 8 11 mph 1012.2mb 65f 59f
1:00am 6 8 mph 1011.5mb 65f 59f